createdAt,value
2022-08-02T00:03:21.953Z,97.80
2022-08-02T00:07:26.580Z,97.70
2022-08-02T00:11:29.396Z,97.80
2022-08-02T00:15:33.564Z,97.80
2022-08-02T00:19:36.407Z,98.00
2022-08-02T00:24:03.271Z,98.30
2022-08-02T00:28:01.905Z,98.60
2022-08-02T00:32:06.538Z,98.70
2022-08-02T00:36:09.327Z,98.80
2022-08-02T00:40:13.115Z,98.80
2022-08-02T00:44:16.110Z,98.90
2022-08-02T00:48:20.177Z,98.70
2022-08-02T00:52:23.849Z,99.00
2022-08-02T00:56:26.613Z,98.70
2022-08-02T01:00:30.020Z,98.80
2022-08-02T01:04:34.140Z,98.80
2022-08-02T01:08:39.960Z,98.70
2022-08-02T01:12:42.788Z,98.90
2022-08-02T01:16:51.470Z,99.00
2022-08-02T01:21:11.403Z,98.90
2022-08-02T01:25:34.272Z,99.00
2022-08-02T01:29:44.601Z,99.00
2022-08-02T01:33:55.148Z,98.90
2022-08-02T01:38:02.668Z,99.00
2022-08-02T01:42:06.726Z,99.10
2022-08-02T01:46:13.559Z,99.10
2022-08-02T01:50:19.408Z,99.10
2022-08-02T01:54:25.879Z,99.30
2022-08-02T01:58:32.667Z,99.00
2022-08-02T02:02:40.843Z,99.10
2022-08-02T02:06:44.458Z,99.30
2022-08-02T02:10:47.558Z,98.90
2022-08-02T02:14:52.078Z,99.00
2022-08-02T02:18:56.638Z,99.10
2022-08-02T02:23:00.455Z,99.20
2022-08-02T02:27:10.134Z,99.40
2022-08-02T02:31:16.168Z,99.10
2022-08-02T02:35:22.619Z,99.20
2022-08-02T02:39:28.449Z,99.30
2022-08-02T02:43:33.506Z,99.30
2022-08-02T02:47:40.997Z,99.40
2022-08-02T02:51:47.072Z,99.30
2022-08-02T02:56:01.733Z,99.20
2022-08-02T03:00:07.347Z,99.10
2022-08-02T03:04:12.799Z,99.30
2022-08-02T03:08:17.577Z,99.30
2022-08-02T03:12:24.796Z,99.30
2022-08-02T03:16:30.510Z,99.20
2022-08-02T03:20:33.276Z,99.40
2022-08-02T03:24:37.399Z,99.30
2022-08-02T03:28:41.195Z,99.30
2022-08-02T03:32:47.896Z,99.40
2022-08-02T03:36:55.689Z,99.50
2022-08-02T03:41:01.817Z,99.60
2022-08-02T03:45:08.745Z,99.80
2022-08-02T03:49:12.780Z,99.80
2022-08-02T03:53:19.973Z,99.50
2022-08-02T03:57:24.546Z,99.40
2022-08-02T04:01:28.911Z,99.30
2022-08-02T04:05:31.907Z,99.60
2022-08-02T04:09:34.703Z,99.60
2022-08-02T04:13:39.707Z,99.80
2022-08-02T04:17:46.857Z,99.90
2022-08-02T04:21:52.707Z,99.80
2022-08-02T04:25:56.731Z,99.90
2022-08-02T04:30:01.789Z,99.90
2022-08-02T04:34:04.942Z,99.90
2022-08-02T04:38:09.625Z,99.80
2022-08-02T04:42:21.784Z,99.70
2022-08-02T04:46:25.918Z,99.60
2022-08-02T04:50:28.706Z,99.50
2022-08-02T04:54:31.500Z,99.60
2022-08-02T04:58:41.498Z,99.40
2022-08-02T05:02:45.604Z,99.60
2022-08-02T05:06:48.403Z,99.60
2022-08-02T05:10:51.268Z,99.70
2022-08-02T05:14:54.066Z,99.50
2022-08-02T05:18:58.173Z,99.60
2022-08-02T05:23:01.116Z,99.40
2022-08-02T05:27:16.466Z,99.30
2022-08-02T05:31:24.535Z,99.20
2022-08-02T05:35:28.733Z,99.10
2022-08-02T05:39:32.007Z,99.40
2022-08-02T05:43:35.539Z,98.00
2022-08-02T05:47:38.897Z,97.70
2022-08-02T05:51:53.553Z,96.00
2022-08-02T05:56:08.440Z,94.10
2022-08-02T06:00:14.079Z,94.20
2022-08-02T06:04:24.859Z,94.90
2022-08-02T06:08:34.712Z,95.40
2022-08-02T06:12:46.796Z,95.50
2022-08-02T06:16:52.529Z,95.60
2022-08-02T06:20:58.321Z,95.20
2022-08-02T06:25:03.404Z,94.90
2022-08-02T06:29:06.729Z,95.00
2022-08-02T06:33:09.578Z,95.20
2022-08-02T06:37:20.419Z,95.10
2022-08-02T06:41:26.327Z,94.90
2022-08-02T06:45:29.286Z,94.40
2022-08-02T06:49:52.541Z,93.10
2022-08-02T06:54:01.737Z,92.90
2022-08-02T06:58:05.944Z,93.40
2022-08-02T07:02:09.670Z,92.80
2022-08-02T07:06:12.639Z,93.20
2022-08-02T07:10:15.970Z,92.90
2022-08-02T07:14:20.127Z,93.30
2022-08-02T07:18:23.482Z,93.20
2022-08-02T07:22:27.543Z,93.20
2022-08-02T07:26:30.538Z,93.50
2022-08-02T07:30:34.741Z,93.10
2022-08-02T07:34:37.528Z,92.10
2022-08-02T07:38:40.299Z,89.60
2022-08-02T07:42:44.599Z,85.60
2022-08-02T07:46:48.994Z,79.90
2022-08-02T07:50:54.971Z,74.10
2022-08-02T07:54:57.820Z,70.20
2022-08-02T07:59:00.612Z,66.80
2022-08-02T08:03:04.923Z,65.50
2022-08-02T08:07:10.060Z,63.20
2022-08-02T08:11:12.972Z,62.70
2022-08-02T08:15:17.033Z,65.60
2022-08-02T08:19:21.169Z,67.30
2022-08-02T08:23:43.943Z,69.00
2022-08-02T08:27:50.140Z,68.70
2022-08-02T08:31:53.180Z,66.20
2022-08-02T08:35:57.483Z,65.00
2022-08-02T08:40:00.265Z,63.60
2022-08-02T08:44:03.093Z,60.60
2022-08-02T08:48:13.734Z,59.60
2022-08-02T08:52:23.975Z,58.50
2022-08-02T08:56:32.923Z,58.80
2022-08-02T09:00:37.203Z,58.80
2022-08-02T09:04:40.141Z,57.20
2022-08-02T09:08:44.636Z,57.30
2022-08-02T09:12:47.439Z,57.80
2022-08-02T09:16:50.435Z,57.50
2022-08-02T09:20:57.483Z,58.20
2022-08-02T09:25:02.646Z,56.10
2022-08-02T09:29:05.584Z,55.10
2022-08-02T09:33:08.375Z,55.20
2022-08-02T09:37:23.245Z,54.40
2022-08-02T09:41:28.978Z,53.00
2022-08-02T09:45:34.891Z,52.80
2022-08-02T09:49:46.963Z,52.60
2022-08-02T09:54:07.887Z,52.40
2022-08-02T09:58:20.374Z,51.50
2022-08-02T10:02:23.354Z,51.80
2022-08-02T10:06:27.180Z,52.20
2022-08-02T10:10:30.031Z,52.10
2022-08-02T10:14:35.767Z,51.80
2022-08-02T10:18:40.477Z,51.80
2022-08-02T10:22:45.268Z,50.70
2022-08-02T10:26:49.321Z,50.70
2022-08-02T10:30:56.399Z,50.30
2022-08-02T10:35:19.969Z,51.60
2022-08-02T10:39:27.856Z,51.60
2022-08-02T10:43:45.264Z,49.90
2022-08-02T10:48:04.597Z,50.10
2022-08-02T10:52:10.467Z,50.50
2022-08-02T10:56:14.870Z,50.80
2022-08-02T11:00:29.042Z,49.70
2022-08-02T11:04:54.598Z,50.20
2022-08-02T11:09:32.319Z,49.60
2022-08-02T11:14:00.393Z,51.20
2022-08-02T11:18:03.157Z,50.10
2022-08-02T11:22:09.893Z,50.10
2022-08-02T11:26:45.250Z,50.30
2022-08-02T11:30:57.804Z,49.40
2022-08-02T11:35:03.318Z,49.10
2022-08-02T11:39:13.681Z,49.10
2022-08-02T11:43:21.941Z,49.80
2022-08-02T11:47:24.849Z,49.20
2022-08-02T11:51:27.633Z,49.10
2022-08-02T11:55:32.313Z,49.70
2022-08-02T11:59:38.537Z,49.50
2022-08-02T12:03:41.497Z,49.50
2022-08-02T12:07:46.905Z,48.70
2022-08-02T12:11:50.981Z,49.70
2022-08-02T12:16:15.116Z,49.20
2022-08-02T12:20:18.134Z,48.90
2022-08-02T12:24:30.624Z,48.90
2022-08-02T12:28:35.969Z,49.10
2022-08-02T12:32:40.592Z,48.00
2022-08-02T12:36:43.954Z,49.20
2022-08-02T12:40:46.971Z,49.80
2022-08-02T12:44:55.022Z,49.20
2022-08-02T12:49:17.530Z,49.10
2022-08-02T12:53:20.958Z,48.20
2022-08-02T12:57:25.220Z,48.70
2022-08-02T13:01:29.244Z,48.80
2022-08-02T13:05:56.862Z,46.90
2022-08-02T13:10:02.754Z,47.50
2022-08-02T13:14:07.529Z,47.40
2022-08-02T13:18:12.082Z,49.00
2022-08-02T13:22:16.542Z,48.40
2022-08-02T13:26:21.494Z,48.00
2022-08-02T13:30:24.447Z,48.10
2022-08-02T13:34:27.241Z,47.90
2022-08-02T13:38:47.592Z,48.00
2022-08-02T13:42:50.524Z,47.70
2022-08-02T13:46:53.349Z,48.20
2022-08-02T13:50:56.126Z,48.20
2022-08-02T13:55:00.390Z,47.80
2022-08-02T13:59:54.131Z,46.70
2022-08-02T14:04:07.477Z,46.80
2022-08-02T14:07:50.368Z,46.20
2022-08-02T14:11:54.496Z,46.20
2022-08-02T14:15:57.398Z,45.80
2022-08-02T14:20:00.204Z,46.30
2022-08-02T14:24:03.019Z,46.00
2022-08-02T14:28:07.704Z,45.90
2022-08-02T14:32:11.238Z,45.60
2022-08-02T14:36:14.602Z,45.80
2022-08-02T14:40:28.197Z,45.50
2022-08-02T14:44:35.794Z,45.70
2022-08-02T14:48:38.596Z,45.20
2022-08-02T14:52:42.442Z,45.70
2022-08-02T14:56:45.269Z,45.30
2022-08-02T15:00:52.500Z,44.20
2022-08-02T15:04:56.233Z,43.80
2022-08-02T15:08:59.341Z,43.40
2022-08-02T15:13:02.104Z,42.40
2022-08-02T15:17:06.466Z,42.50
2022-08-02T15:21:26.679Z,42.80
2022-08-02T15:25:32.808Z,42.40
2022-08-02T15:29:36.049Z,42.00
2022-08-02T15:33:40.146Z,42.00
2022-08-02T15:37:42.871Z,41.70
2022-08-02T15:41:45.654Z,41.10
2022-08-02T15:45:48.471Z,40.70
2022-08-02T15:49:52.633Z,40.10
2022-08-02T15:53:55.440Z,40.80
2022-08-02T15:57:58.226Z,40.40
2022-08-02T16:02:01.079Z,41.00
2022-08-02T16:06:05.288Z,40.30
2022-08-02T16:10:08.923Z,41.20
2022-08-02T16:14:11.963Z,42.00
2022-08-02T16:18:14.803Z,41.70
2022-08-02T16:22:18.949Z,42.60
2022-08-02T16:26:21.777Z,41.40
2022-08-02T16:30:24.701Z,41.30
2022-08-02T16:34:36.296Z,40.90
2022-08-02T16:38:51.563Z,41.60
2022-08-02T16:42:54.317Z,41.70
2022-08-02T16:47:01.438Z,42.10
2022-08-02T16:51:05.284Z,41.80
2022-08-02T16:55:18.287Z,42.50
2022-08-02T16:59:21.120Z,43.20
2022-08-02T17:03:56.791Z,42.30
2022-08-02T17:08:16.421Z,42.60
2022-08-02T17:12:22.465Z,44.00
2022-08-02T17:16:26.594Z,45.30
2022-08-02T17:20:30.468Z,46.20
2022-08-02T17:24:33.446Z,46.20
2022-08-02T17:33:00.901Z,46.70
2022-08-02T17:37:05.548Z,48.00
2022-08-02T17:41:15.142Z,47.60
2022-08-02T17:45:25.840Z,47.30
2022-08-02T17:49:30.790Z,48.40
2022-08-02T17:53:36.338Z,48.30
2022-08-02T17:57:55.616Z,48.70
2022-08-02T18:02:03.625Z,49.10
2022-08-02T18:06:06.891Z,50.30
2022-08-02T18:10:12.297Z,50.30
2022-08-02T18:14:19.154Z,50.70
2022-08-02T18:18:30.100Z,51.00
2022-08-02T18:22:33.159Z,51.00
2022-08-02T18:26:36.730Z,51.30
2022-08-02T18:30:39.482Z,52.20
2022-08-02T18:34:47.739Z,52.70
2022-08-02T18:38:50.645Z,52.30
2022-08-02T18:42:53.497Z,53.10
2022-08-02T18:46:57.162Z,53.50
2022-08-02T18:51:03.496Z,55.60
2022-08-02T18:55:17.107Z,55.30
2022-08-02T18:59:20.613Z,55.60
2022-08-02T19:03:24.342Z,56.60
2022-08-02T19:07:50.495Z,55.90
2022-08-02T19:11:51.837Z,56.80
2022-08-02T19:15:54.928Z,57.10
2022-08-02T19:20:01.023Z,58.10
2022-08-02T19:24:05.852Z,58.80
2022-08-02T19:28:08.799Z,59.10
2022-08-02T19:32:42.457Z,60.50
2022-08-02T19:36:35.116Z,60.70
2022-08-02T19:40:41.701Z,61.80
2022-08-02T19:44:45.744Z,62.90
2022-08-02T19:48:48.616Z,63.70
2022-08-02T19:52:52.885Z,65.30
2022-08-02T19:56:57.214Z,67.10
2022-08-02T20:01:00.047Z,68.10
2022-08-02T20:05:08.035Z,68.50
2022-08-02T20:09:21.012Z,68.60
2022-08-02T20:13:27.253Z,68.20
2022-08-02T20:17:38.881Z,69.10
2022-08-02T20:21:56.865Z,70.20
2022-08-02T20:26:02.464Z,71.30
2022-08-02T20:30:08.001Z,71.80
2022-08-02T20:34:10.838Z,72.30
2022-08-02T20:38:13.608Z,72.40
2022-08-02T20:42:23.025Z,73.00
2022-08-02T20:46:29.310Z,73.50
2022-08-02T20:50:52.045Z,73.80
2022-08-02T20:54:56.054Z,73.90
2022-08-02T20:59:04.013Z,74.80
2022-08-02T21:03:20.577Z,75.20
2022-08-02T21:07:25.519Z,74.50
2022-08-02T21:11:33.369Z,75.10
2022-08-02T21:15:37.195Z,74.90
2022-08-02T21:19:44.656Z,74.60
2022-08-02T21:23:48.919Z,76.40
2022-08-02T21:27:57.311Z,75.50
2022-08-02T21:32:00.115Z,75.20
2022-08-02T21:36:05.240Z,76.60
2022-08-02T21:40:09.614Z,76.70
2022-08-02T21:44:12.396Z,76.00
2022-08-02T21:48:15.126Z,76.60
2022-08-02T21:52:19.565Z,76.40
2022-08-02T21:56:22.397Z,75.80
2022-08-02T22:00:28.728Z,76.60
2022-08-02T22:04:31.957Z,76.50
2022-08-02T22:08:37.518Z,75.80
2022-08-02T22:12:40.342Z,76.70
2022-08-02T22:16:43.161Z,77.00
2022-08-02T22:20:46.058Z,77.20
2022-08-02T22:24:50.596Z,76.60
2022-08-02T22:28:59.255Z,76.40
2022-08-02T22:33:20.011Z,77.10
2022-08-02T22:38:17.033Z,78.00
2022-08-02T22:42:06.381Z,78.00
2022-08-02T22:46:09.856Z,78.20
2022-08-02T22:50:19.216Z,78.80
2022-08-02T22:54:22.098Z,79.20
2022-08-02T22:58:28.186Z,78.60
2022-08-02T22:58:38.445Z,46.40
2022-08-02T23:02:30.989Z,80.30
2022-08-02T23:06:36.007Z,81.00
2022-08-02T23:10:38.980Z,81.70
2022-08-02T23:14:43.066Z,81.70
2022-08-02T23:19:03.372Z,82.60
2022-08-02T23:23:11.577Z,83.80
2022-08-02T23:27:14.741Z,85.00
2022-08-02T23:31:33.266Z,85.90
2022-08-02T23:35:40.341Z,86.70
2022-08-02T23:39:43.223Z,88.10
2022-08-02T23:44:03.894Z,88.70
2022-08-02T23:48:10.158Z,88.80
2022-08-02T23:52:13.423Z,89.10
2022-08-02T23:56:16.430Z,89.50
